Sunbury, PA

10:12 PM EST on January 29, 2015 (GMT -0500)
KPASUNBU2 | Change Station
CLOSE
Current Station
Personal Weather Station
Location: Sunbury, PA
Elevation: 508 ft
Nearby Weather Stations

Elev 508 ft 40.86 °N, 76.78 °W | Updated 1 second ago

Overcast
Overcast
28.6 °F
Feels Like 25 °F
N
3.1
Wind Variable Wind from West
Gusts 7.6 mph

Today
High -- | Low -- °F
--% Chance of Precip.
Yesterday
High -- | Low -- °F
Precip. -- in
7:20 AM 5:20 PM
Waxing Gibbous, 79% visible
Pressure 29.96 in
Visibility 8.0 miles
Clouds Overcast 3800 ft
Windchill 25 °F
Dew Point 10 °F
Humidity 44%
Rainfall 0.00 in
Snow Depth Not available.
UV 0 out of 12
Pollen .10 out of 12
Air Quality Not available.
Flu Activity Not available.
METAR KSEG 300253Z AUTO 21004KT 8SM OVC038 M02/M05 A2993 RMK AO2 SNB32E52 SLP143 P0000 60001 T10171050 57022

More Conditions Fewer Conditions

Pressure 29.96 in
Visibility 8.0 miles
Clouds Overcast 3800 ft
Windchill 25 °F
Dew Point 10 °F
Humidity 44%
Rainfall 0.00 in
Snow Depth Not available.
UV 0 out of 12
Pollen .10 out of 12
Air Quality Not available.
Flu Activity Not available.
METAR KSEG 300253Z AUTO 21004KT 8SM OVC038 M02/M05 A2993 RMK AO2 SNB32E52 SLP143 P0000 60001 T10171050 57022

More Conditions Fewer Conditions

Nowcast | as of 9:45 PM EST on January 29, 2015

Scattered snow showers will continue across the region through 11 PM. Sleet will mix with the snow at times. In between snow showers... pockets of freezing drizzle are possible. Persons traveling late this evening should be alert for poor travel conditions and allow extra time to reach your destination.

×

10-Day Weather Forecast

Almanac

Astronomy

Jan. 29, 2015 Rise Set
Actual Time
Civil Twilight
Nautical Twilight
Astronomical Twilight
Moon
Length of Visible Light
Length of Day
Tomorrow will be .
, % of the Moon is Illuminated

Today's Extremes

State Highs State Lows

Community

WunderPhotos

Upload Photos

1,791,702 photos uploaded!

WunderBlogs® & News

Nearby

Air Quality

  Air Quality AQ Index Pollutant
Not available.

Snow Depth

Station Depth Elevation

Earthquake Activity

City Distance Mag. Time & Date
Minimum magnitude displayed is 2.5.

Coastal Water Temperatures

Place Temperature

Nearby Weather Stations